sensor_id;sensor_type;location;lat;lon;timestamp;temperature;humidity
32173;DHT22;18679;45.190;5.722;2023-03-16T00:01:58;11.80;41.80
32173;DHT22;18679;45.190;5.722;2023-03-16T00:04:59;11.80;42.10
32173;DHT22;18679;45.190;5.722;2023-03-16T00:08:03;11.80;42.20
32173;DHT22;18679;45.190;5.722;2023-03-16T00:11:08;11.80;42.30
32173;DHT22;18679;45.190;5.722;2023-03-16T00:14:09;11.70;42.40
32173;DHT22;18679;45.190;5.722;2023-03-16T00:17:17;11.70;42.40
32173;DHT22;18679;45.190;5.722;2023-03-16T00:20:19;11.60;42.40
32173;DHT22;18679;45.190;5.722;2023-03-16T00:23:21;11.70;42.50
32173;DHT22;18679;45.190;5.722;2023-03-16T00:26:28;11.60;42.50
32173;DHT22;18679;45.190;5.722;2023-03-16T00:29:29;11.50;42.60
32173;DHT22;18679;45.190;5.722;2023-03-16T00:32:36;11.50;42.60
32173;DHT22;18679;45.190;5.722;2023-03-16T00:35:37;11.40;42.70
32173;DHT22;18679;45.190;5.722;2023-03-16T00:38:39;11.40;43.00
32173;DHT22;18679;45.190;5.722;2023-03-16T00:41:52;11.40;43.10
32173;DHT22;18679;45.190;5.722;2023-03-16T00:44:58;11.30;43.20
32173;DHT22;18679;45.190;5.722;2023-03-16T00:47:59;11.30;43.30
32173;DHT22;18679;45.190;5.722;2023-03-16T00:51:06;11.20;43.30
32173;DHT22;18679;45.190;5.722;2023-03-16T00:54:07;11.20;44.00
32173;DHT22;18679;45.190;5.722;2023-03-16T00:57:10;11.10;43.50
32173;DHT22;18679;45.190;5.722;2023-03-16T01:00:15;11.10;43.70
32173;DHT22;18679;45.190;5.722;2023-03-16T01:03:17;11.00;44.40
32173;DHT22;18679;45.190;5.722;2023-03-16T01:06:18;10.90;43.90
32173;DHT22;18679;45.190;5.722;2023-03-16T01:09:21;10.90;44.10
32173;DHT22;18679;45.190;5.722;2023-03-16T01:12:22;10.90;44.40
32173;DHT22;18679;45.190;5.722;2023-03-16T01:15:23;10.90;44.40
32173;DHT22;18679;45.190;5.722;2023-03-16T01:18:28;10.90;44.50
32173;DHT22;18679;45.190;5.722;2023-03-16T01:21:29;10.80;44.70
32173;DHT22;18679;45.190;5.722;2023-03-16T01:24:36;10.70;44.80
32173;DHT22;18679;45.190;5.722;2023-03-16T01:27:37;10.70;45.00
32173;DHT22;18679;45.190;5.722;2023-03-16T01:30:42;10.60;45.10
32173;DHT22;18679;45.190;5.722;2023-03-16T01:33:44;10.50;45.30
32173;DHT22;18679;45.190;5.722;2023-03-16T01:36:49;10.50;45.40
32173;DHT22;18679;45.190;5.722;2023-03-16T01:40:01;10.40;45.40
32173;DHT22;18679;45.190;5.722;2023-03-16T01:43:06;10.40;45.40
32173;DHT22;18679;45.190;5.722;2023-03-16T01:49:32;10.50;45.50
32173;DHT22;18679;45.190;5.722;2023-03-16T01:52:36;10.40;45.50
32173;DHT22;18679;45.190;5.722;2023-03-16T01:55:37;10.50;45.50
32173;DHT22;18679;45.190;5.722;2023-03-16T01:58:42;10.50;45.50
32173;DHT22;18679;45.190;5.722;2023-03-16T02:01:45;10.50;45.40
32173;DHT22;18679;45.190;5.722;2023-03-16T02:05:28;10.50;45.30
32173;DHT22;18679;45.190;5.722;2023-03-16T02:08:32;10.50;45.40
32173;DHT22;18679;45.190;5.722;2023-03-16T02:11:33;10.50;45.40
32173;DHT22;18679;45.190;5.722;2023-03-16T02:14:46;10.50;45.50
32173;DHT22;18679;45.190;5.722;2023-03-16T02:17:51;10.40;45.50
32173;DHT22;18679;45.190;5.722;2023-03-16T02:21:38;10.40;45.60
32173;DHT22;18679;45.190;5.722;2023-03-16T02:24:45;10.40;45.60
32173;DHT22;18679;45.190;5.722;2023-03-16T02:30:59;10.40;45.80
32173;DHT22;18679;45.190;5.722;2023-03-16T02:34:11;10.40;45.80
32173;DHT22;18679;45.190;5.722;2023-03-16T02:37:15;10.30;45.90
32173;DHT22;18679;45.190;5.722;2023-03-16T02:40:24;10.30;46.00
32173;DHT22;18679;45.190;5.722;2023-03-16T02:43:31;10.30;46.20
32173;DHT22;18679;45.190;5.722;2023-03-16T02:46:57;10.20;46.30
32173;DHT22;18679;45.190;5.722;2023-03-16T02:50:02;10.20;46.40
32173;DHT22;18679;45.190;5.722;2023-03-16T02:53:06;10.20;46.60
32173;DHT22;18679;45.190;5.722;2023-03-16T02:56:09;10.20;46.60
32173;DHT22;18679;45.190;5.722;2023-03-16T02:59:11;10.20;46.70
32173;DHT22;18679;45.190;5.722;2023-03-16T03:02:12;10.10;46.80
32173;DHT22;18679;45.190;5.722;2023-03-16T03:05:13;10.10;47.00
32173;DHT22;18679;45.190;5.722;2023-03-16T03:08:14;10.10;47.10
32173;DHT22;18679;45.190;5.722;2023-03-16T03:11:16;10.00;47.20
32173;DHT22;18679;45.190;5.722;2023-03-16T03:14:19;10.00;47.40
32173;DHT22;18679;45.190;5.722;2023-03-16T03:17:23;10.00;47.60
32173;DHT22;18679;45.190;5.722;2023-03-16T03:20:30;9.90;47.70
32173;DHT22;18679;45.190;5.722;2023-03-16T03:23:31;9.90;48.00
32173;DHT22;18679;45.190;5.722;2023-03-16T03:26:32;9.80;48.20
32173;DHT22;18679;45.190;5.722;2023-03-16T03:29:34;9.80;48.50
32173;DHT22;18679;45.190;5.722;2023-03-16T03:32:35;9.70;48.80
32173;DHT22;18679;45.190;5.722;2023-03-16T03:35:36;9.70;49.00
32173;DHT22;18679;45.190;5.722;2023-03-16T03:38:38;9.60;49.10
32173;DHT22;18679;45.190;5.722;2023-03-16T03:41:40;9.60;49.20
32173;DHT22;18679;45.190;5.722;2023-03-16T03:44:41;9.50;49.20
32173;DHT22;18679;45.190;5.722;2023-03-16T03:47:43;9.50;49.30
32173;DHT22;18679;45.190;5.722;2023-03-16T03:50:48;9.40;49.20
32173;DHT22;18679;45.190;5.722;2023-03-16T03:54:07;9.40;49.20
32173;DHT22;18679;45.190;5.722;2023-03-16T03:57:21;9.40;49.40
32173;DHT22;18679;45.190;5.722;2023-03-16T04:00:23;9.30;49.40
32173;DHT22;18679;45.190;5.722;2023-03-16T04:03:24;9.30;49.50
32173;DHT22;18679;45.190;5.722;2023-03-16T04:06:26;9.30;49.50
32173;DHT22;18679;45.190;5.722;2023-03-16T04:09:29;9.40;49.50
32173;DHT22;18679;45.190;5.722;2023-03-16T04:12:33;9.40;49.40
32173;DHT22;18679;45.190;5.722;2023-03-16T04:15:34;9.40;49.40
32173;DHT22;18679;45.190;5.722;2023-03-16T04:18:48;9.40;49.60
32173;DHT22;18679;45.190;5.722;2023-03-16T04:21:50;9.40;49.70
32173;DHT22;18679;45.190;5.722;2023-03-16T04:24:52;9.40;49.80
32173;DHT22;18679;45.190;5.722;2023-03-16T04:27:55;9.30;49.90
32173;DHT22;18679;45.190;5.722;2023-03-16T04:31:05;9.30;49.90
32173;DHT22;18679;45.190;5.722;2023-03-16T04:34:12;9.30;49.90
32173;DHT22;18679;45.190;5.722;2023-03-16T04:37:13;9.30;49.90
32173;DHT22;18679;45.190;5.722;2023-03-16T04:40:16;9.40;49.90
32173;DHT22;18679;45.190;5.722;2023-03-16T04:43:22;9.40;49.80
32173;DHT22;18679;45.190;5.722;2023-03-16T04:46:26;9.40;49.70
32173;DHT22;18679;45.190;5.722;2023-03-16T04:49:27;9.40;49.70
32173;DHT22;18679;45.190;5.722;2023-03-16T04:52:29;9.50;49.70
32173;DHT22;18679;45.190;5.722;2023-03-16T04:55:30;9.40;49.70
32173;DHT22;18679;45.190;5.722;2023-03-16T04:58:31;9.50;49.70
32173;DHT22;18679;45.190;5.722;2023-03-16T05:01:34;9.50;49.70
32173;DHT22;18679;45.190;5.722;2023-03-16T05:04:37;9.50;49.70
32173;DHT22;18679;45.190;5.722;2023-03-16T05:07:39;9.50;49.70
32173;DHT22;18679;45.190;5.722;2023-03-16T05:10:41;9.50;49.70
32173;DHT22;18679;45.190;5.722;2023-03-16T05:13:42;9.50;49.70
32173;DHT22;18679;45.190;5.722;2023-03-16T05:16:43;9.50;49.70
32173;DHT22;18679;45.190;5.722;2023-03-16T05:19:43;9.50;49.80
32173;DHT22;18679;45.190;5.722;2023-03-16T05:22:45;9.50;49.90
32173;DHT22;18679;45.190;5.722;2023-03-16T05:25:55;9.50;50.00
32173;DHT22;18679;45.190;5.722;2023-03-16T05:29:00;9.40;50.20
32173;DHT22;18679;45.190;5.722;2023-03-16T05:32:04;9.40;50.30
32173;DHT22;18679;45.190;5.722;2023-03-16T05:35:07;9.30;50.40
32173;DHT22;18679;45.190;5.722;2023-03-16T05:38:08;9.30;50.40
32173;DHT22;18679;45.190;5.722;2023-03-16T05:41:12;9.30;50.50
32173;DHT22;18679;45.190;5.722;2023-03-16T05:44:46;9.20;50.60
32173;DHT22;18679;45.190;5.722;2023-03-16T05:48:07;9.10;50.80
32173;DHT22;18679;45.190;5.722;2023-03-16T05:51:13;9.10;51.10
32173;DHT22;18679;45.190;5.722;2023-03-16T05:54:14;9.00;51.30
32173;DHT22;18679;45.190;5.722;2023-03-16T05:57:20;9.00;51.40
32173;DHT22;18679;45.190;5.722;2023-03-16T06:00:24;9.00;51.40
32173;DHT22;18679;45.190;5.722;2023-03-16T06:03:35;9.00;51.30
32173;DHT22;18679;45.190;5.722;2023-03-16T06:06:38;9.00;51.30
32173;DHT22;18679;45.190;5.722;2023-03-16T06:09:45;9.00;51.40
32173;DHT22;18679;45.190;5.722;2023-03-16T06:12:49;9.00;51.60
32173;DHT22;18679;45.190;5.722;2023-03-16T06:15:53;8.90;51.60
32173;DHT22;18679;45.190;5.722;2023-03-16T06:18:54;9.00;51.70
32173;DHT22;18679;45.190;5.722;2023-03-16T06:21:56;9.00;51.70
32173;DHT22;18679;45.190;5.722;2023-03-16T06:24:57;9.00;51.80
32173;DHT22;18679;45.190;5.722;2023-03-16T06:27:59;8.90;51.80
32173;DHT22;18679;45.190;5.722;2023-03-16T06:31:00;9.00;51.90
32173;DHT22;18679;45.190;5.722;2023-03-16T06:34:05;9.00;52.00
32173;DHT22;18679;45.190;5.722;2023-03-16T06:37:07;9.00;51.90
32173;DHT22;18679;45.190;5.722;2023-03-16T06:40:09;9.00;52.40
32173;DHT22;18679;45.190;5.722;2023-03-16T06:43:10;9.00;51.70
32173;DHT22;18679;45.190;5.722;2023-03-16T06:46:11;9.00;51.80
32173;DHT22;18679;45.190;5.722;2023-03-16T06:49:13;9.00;51.80
32173;DHT22;18679;45.190;5.722;2023-03-16T06:52:16;9.00;51.90
32173;DHT22;18679;45.190;5.722;2023-03-16T06:55:17;8.90;52.00
32173;DHT22;18679;45.190;5.722;2023-03-16T06:58:20;8.90;52.10
32173;DHT22;18679;45.190;5.722;2023-03-16T07:01:21;8.90;52.20
32173;DHT22;18679;45.190;5.722;2023-03-16T07:04:23;8.90;52.10
32173;DHT22;18679;45.190;5.722;2023-03-16T07:07:24;9.00;52.10
32173;DHT22;18679;45.190;5.722;2023-03-16T07:10:27;9.00;52.00
32173;DHT22;18679;45.190;5.722;2023-03-16T07:13:28;9.10;52.00
32173;DHT22;18679;45.190;5.722;2023-03-16T07:16:30;9.10;51.80
32173;DHT22;18679;45.190;5.722;2023-03-16T07:19:34;9.20;51.70
32173;DHT22;18679;45.190;5.722;2023-03-16T07:22:37;9.20;51.70
32173;DHT22;18679;45.190;5.722;2023-03-16T07:25:41;9.30;51.70
32173;DHT22;18679;45.190;5.722;2023-03-16T07:28:43;9.30;51.60
32173;DHT22;18679;45.190;5.722;2023-03-16T07:31:44;9.30;51.70
32173;DHT22;18679;45.190;5.722;2023-03-16T07:34:53;9.30;51.70
32173;DHT22;18679;45.190;5.722;2023-03-16T07:37:54;9.40;51.80
32173;DHT22;18679;45.190;5.722;2023-03-16T07:40:56;9.40;51.70
32173;DHT22;18679;45.190;5.722;2023-03-16T07:43:57;9.60;51.70
32173;DHT22;18679;45.190;5.722;2023-03-16T07:46:58;9.60;51.50
32173;DHT22;18679;45.190;5.722;2023-03-16T07:50:02;9.80;51.40
32173;DHT22;18679;45.190;5.722;2023-03-16T07:53:03;10.00;51.70
32173;DHT22;18679;45.190;5.722;2023-03-16T07:56:06;10.10;50.70
32173;DHT22;18679;45.190;5.722;2023-03-16T07:59:09;10.20;50.50
32173;DHT22;18679;45.190;5.722;2023-03-16T08:02:14;10.40;50.30
32173;DHT22;18679;45.190;5.722;2023-03-16T08:05:16;10.60;50.00
32173;DHT22;18679;45.190;5.722;2023-03-16T08:08:22;10.80;49.50
32173;DHT22;18679;45.190;5.722;2023-03-16T08:11:23;10.90;48.90
32173;DHT22;18679;45.190;5.722;2023-03-16T08:14:35;11.10;48.40
32173;DHT22;18679;45.190;5.722;2023-03-16T08:17:50;11.20;47.80
32173;DHT22;18679;45.190;5.722;2023-03-16T08:20:57;11.40;47.20
32173;DHT22;18679;45.190;5.722;2023-03-16T08:23:59;11.50;47.20
32173;DHT22;18679;45.190;5.722;2023-03-16T08:27:02;11.70;47.00
32173;DHT22;18679;45.190;5.722;2023-03-16T08:30:05;11.80;46.70
32173;DHT22;18679;45.190;5.722;2023-03-16T08:33:09;12.00;46.60
32173;DHT22;18679;45.190;5.722;2023-03-16T08:36:13;12.10;46.30
32173;DHT22;18679;45.190;5.722;2023-03-16T08:39:17;12.30;45.80
32173;DHT22;18679;45.190;5.722;2023-03-16T08:42:21;12.40;45.40
32173;DHT22;18679;45.190;5.722;2023-03-16T08:45:30;12.50;45.00
32173;DHT22;18679;45.190;5.722;2023-03-16T08:48:31;12.70;44.80
32173;DHT22;18679;45.190;5.722;2023-03-16T08:51:33;12.80;44.40
32173;DHT22;18679;45.190;5.722;2023-03-16T08:54:34;12.80;44.00
32173;DHT22;18679;45.190;5.722;2023-03-16T08:57:36;12.90;43.70
32173;DHT22;18679;45.190;5.722;2023-03-16T09:00:39;13.00;43.40
32173;DHT22;18679;45.190;5.722;2023-03-16T09:03:41;13.00;43.30
32173;DHT22;18679;45.190;5.722;2023-03-16T09:06:42;13.10;43.30
32173;DHT22;18679;45.190;5.722;2023-03-16T09:09:43;13.20;43.10
32173;DHT22;18679;45.190;5.722;2023-03-16T09:12:45;13.30;42.80
32173;DHT22;18679;45.190;5.722;2023-03-16T09:15:46;13.50;42.50
32173;DHT22;18679;45.190;5.722;2023-03-16T09:18:47;13.60;42.60
32173;DHT22;18679;45.190;5.722;2023-03-16T09:21:48;13.80;42.30
32173;DHT22;18679;45.190;5.722;2023-03-16T09:24:49;13.90;42.00
32173;DHT22;18679;45.190;5.722;2023-03-16T09:27:51;14.10;41.90
32173;DHT22;18679;45.190;5.722;2023-03-16T09:30:56;14.20;41.30
32173;DHT22;18679;45.190;5.722;2023-03-16T09:33:58;14.20;41.00
32173;DHT22;18679;45.190;5.722;2023-03-16T09:36:59;14.40;40.60
32173;DHT22;18679;45.190;5.722;2023-03-16T09:40:01;14.50;40.50
32173;DHT22;18679;45.190;5.722;2023-03-16T09:43:09;14.50;39.80
32173;DHT22;18679;45.190;5.722;2023-03-16T09:49:32;14.50;39.40
32173;DHT22;18679;45.190;5.722;2023-03-16T09:56:13;14.60;39.40
32173;DHT22;18679;45.190;5.722;2023-03-16T09:59:16;14.70;39.40
32173;DHT22;18679;45.190;5.722;2023-03-16T10:05:32;14.70;38.90
32173;DHT22;18679;45.190;5.722;2023-03-16T10:08:40;14.80;39.00
32173;DHT22;18679;45.190;5.722;2023-03-16T10:11:52;14.90;39.00
32173;DHT22;18679;45.190;5.722;2023-03-16T10:15:10;15.00;38.90
32173;DHT22;18679;45.190;5.722;2023-03-16T10:18:21;15.10;38.90
32173;DHT22;18679;45.190;5.722;2023-03-16T10:21:23;15.20;38.80
32173;DHT22;18679;45.190;5.722;2023-03-16T10:27:56;15.50;38.90
32173;DHT22;18679;45.190;5.722;2023-03-16T10:30:59;15.60;38.30
32173;DHT22;18679;45.190;5.722;2023-03-16T10:34:04;15.70;38.00
32173;DHT22;18679;45.190;5.722;2023-03-16T10:37:12;15.80;38.00
32173;DHT22;18679;45.190;5.722;2023-03-16T10:40:14;16.00;37.70
32173;DHT22;18679;45.190;5.722;2023-03-16T10:43:16;16.30;37.30
32173;DHT22;18679;45.190;5.722;2023-03-16T10:46:17;16.60;36.60
32173;DHT22;18679;45.190;5.722;2023-03-16T10:49:27;16.80;36.20
32173;DHT22;18679;45.190;5.722;2023-03-16T10:55:41;17.60;35.00
32173;DHT22;18679;45.190;5.722;2023-03-16T10:58:43;17.80;34.30
32173;DHT22;18679;45.190;5.722;2023-03-16T11:01:47;18.00;33.70
32173;DHT22;18679;45.190;5.722;2023-03-16T11:04:49;18.10;33.50
32173;DHT22;18679;45.190;5.722;2023-03-16T11:08:06;18.30;33.40
32173;DHT22;18679;45.190;5.722;2023-03-16T11:11:15;18.50;33.40
32173;DHT22;18679;45.190;5.722;2023-03-16T11:14:20;18.80;33.10
32173;DHT22;18679;45.190;5.722;2023-03-16T11:17:33;19.10;32.70
32173;DHT22;18679;45.190;5.722;2023-03-16T11:20:36;19.30;32.50
32173;DHT22;18679;45.190;5.722;2023-03-16T11:23:40;19.50;32.20
32173;DHT22;18679;45.190;5.722;2023-03-16T11:26:44;19.70;32.00
32173;DHT22;18679;45.190;5.722;2023-03-16T11:33:20;20.10;30.80
32173;DHT22;18679;45.190;5.722;2023-03-16T11:40:00;20.70;29.60
32173;DHT22;18679;45.190;5.722;2023-03-16T11:50:16;22.00;28.10
32173;DHT22;18679;45.190;5.722;2023-03-16T11:53:30;22.30;27.70
32173;DHT22;18679;45.190;5.722;2023-03-16T11:56:49;22.50;27.50
32173;DHT22;18679;45.190;5.722;2023-03-16T12:14:12;23.70;25.50
32173;DHT22;18679;45.190;5.722;2023-03-16T12:17:30;24.10;25.00
32173;DHT22;18679;45.190;5.722;2023-03-16T12:21:05;24.80;24.80
32173;DHT22;18679;45.190;5.722;2023-03-16T12:24:21;25.40;24.20
32173;DHT22;18679;45.190;5.722;2023-03-16T12:27:28;25.50;23.30
32173;DHT22;18679;45.190;5.722;2023-03-16T12:33:52;26.30;22.90
32173;DHT22;18679;45.190;5.722;2023-03-16T12:40:32;27.40;21.90
32173;DHT22;18679;45.190;5.722;2023-03-16T12:47:17;28.50;20.60
32173;DHT22;18679;45.190;5.722;2023-03-16T12:50:20;28.70;20.00
32173;DHT22;18679;45.190;5.722;2023-03-16T12:56:47;28.70;19.70
32173;DHT22;18679;45.190;5.722;2023-03-16T12:59:54;29.00;19.50
32173;DHT22;18679;45.190;5.722;2023-03-16T13:02:56;29.50;19.20
32173;DHT22;18679;45.190;5.722;2023-03-16T13:05:59;29.90;18.90
32173;DHT22;18679;45.190;5.722;2023-03-16T13:09:05;29.70;18.40
32173;DHT22;18679;45.190;5.722;2023-03-16T13:12:07;29.00;18.70
32173;DHT22;18679;45.190;5.722;2023-03-16T13:18:22;26.80;19.30
32173;DHT22;18679;45.190;5.722;2023-03-16T13:21:40;26.20;19.80
32173;DHT22;18679;45.190;5.722;2023-03-16T13:24:49;25.50;19.90
32173;DHT22;18679;45.190;5.722;2023-03-16T13:27:53;25.00;20.00
32173;DHT22;18679;45.190;5.722;2023-03-16T13:30:55;24.70;20.30
32173;DHT22;18679;45.190;5.722;2023-03-16T13:33:56;24.30;20.70
32173;DHT22;18679;45.190;5.722;2023-03-16T13:36:59;24.10;20.90
32173;DHT22;18679;45.190;5.722;2023-03-16T13:40:15;24.00;21.10
32173;DHT22;18679;45.190;5.722;2023-03-16T13:43:21;23.80;21.20
32173;DHT22;18679;45.190;5.722;2023-03-16T13:46:27;23.70;21.30
32173;DHT22;18679;45.190;5.722;2023-03-16T13:49:29;23.40;21.40
32173;DHT22;18679;45.190;5.722;2023-03-16T13:52:34;23.30;21.60
32173;DHT22;18679;45.190;5.722;2023-03-16T13:55:36;23.10;21.70
32173;DHT22;18679;45.190;5.722;2023-03-16T13:58:38;22.90;21.80
32173;DHT22;18679;45.190;5.722;2023-03-16T14:01:43;22.80;22.00
32173;DHT22;18679;45.190;5.722;2023-03-16T14:04:45;22.60;22.10
32173;DHT22;18679;45.190;5.722;2023-03-16T14:07:48;22.50;22.30
32173;DHT22;18679;45.190;5.722;2023-03-16T14:10:52;22.30;22.40
32173;DHT22;18679;45.190;5.722;2023-03-16T14:13:58;22.30;22.50
32173;DHT22;18679;45.190;5.722;2023-03-16T14:17:09;22.30;22.70
32173;DHT22;18679;45.190;5.722;2023-03-16T14:20:19;22.20;22.80
32173;DHT22;18679;45.190;5.722;2023-03-16T14:23:27;22.10;22.90
32173;DHT22;18679;45.190;5.722;2023-03-16T14:26:46;22.00;23.20
32173;DHT22;18679;45.190;5.722;2023-03-16T14:30:00;21.90;23.40
32173;DHT22;18679;45.190;5.722;2023-03-16T14:33:25;22.00;23.60
32173;DHT22;18679;45.190;5.722;2023-03-16T14:36:34;21.90;23.60
32173;DHT22;18679;45.190;5.722;2023-03-16T14:39:36;21.90;23.70
32173;DHT22;18679;45.190;5.722;2023-03-16T14:42:39;21.90;23.70
32173;DHT22;18679;45.190;5.722;2023-03-16T14:45:41;21.90;23.70
32173;DHT22;18679;45.190;5.722;2023-03-16T14:48:42;21.90;23.70
32173;DHT22;18679;45.190;5.722;2023-03-16T14:51:46;22.00;23.80
32173;DHT22;18679;45.190;5.722;2023-03-16T14:54:47;21.90;23.80
32173;DHT22;18679;45.190;5.722;2023-03-16T14:57:49;21.90;23.80
32173;DHT22;18679;45.190;5.722;2023-03-16T15:00:52;21.90;23.80
32173;DHT22;18679;45.190;5.722;2023-03-16T15:03:53;22.00;23.90
32173;DHT22;18679;45.190;5.722;2023-03-16T15:06:54;21.90;23.80
32173;DHT22;18679;45.190;5.722;2023-03-16T15:10:07;22.00;23.90
32173;DHT22;18679;45.190;5.722;2023-03-16T15:13:20;21.90;23.90
32173;DHT22;18679;45.190;5.722;2023-03-16T15:16:41;22.00;24.00
32173;DHT22;18679;45.190;5.722;2023-03-16T15:19:42;22.00;24.10
32173;DHT22;18679;45.190;5.722;2023-03-16T15:22:44;21.90;24.20
32173;DHT22;18679;45.190;5.722;2023-03-16T15:25:47;21.90;24.30
32173;DHT22;18679;45.190;5.722;2023-03-16T15:28:48;21.90;24.30
32173;DHT22;18679;45.190;5.722;2023-03-16T15:31:49;21.90;24.20
32173;DHT22;18679;45.190;5.722;2023-03-16T15:34:50;21.80;24.30
32173;DHT22;18679;45.190;5.722;2023-03-16T15:37:51;21.90;24.40
32173;DHT22;18679;45.190;5.722;2023-03-16T15:40:53;22.00;24.40
32173;DHT22;18679;45.190;5.722;2023-03-16T15:43:54;22.00;24.40
32173;DHT22;18679;45.190;5.722;2023-03-16T15:47:00;22.00;24.40
32173;DHT22;18679;45.190;5.722;2023-03-16T15:50:01;22.10;24.50
32173;DHT22;18679;45.190;5.722;2023-03-16T15:53:26;22.10;24.50
32173;DHT22;18679;45.190;5.722;2023-03-16T15:56:31;22.10;24.60
32173;DHT22;18679;45.190;5.722;2023-03-16T15:59:35;22.10;24.60
32173;DHT22;18679;45.190;5.722;2023-03-16T16:02:36;22.10;24.70
32173;DHT22;18679;45.190;5.722;2023-03-16T16:05:37;22.10;24.60
32173;DHT22;18679;45.190;5.722;2023-03-16T16:08:38;22.10;24.70
32173;DHT22;18679;45.190;5.722;2023-03-16T16:11:39;22.00;24.70
32173;DHT22;18679;45.190;5.722;2023-03-16T16:14:41;22.00;24.80
32173;DHT22;18679;45.190;5.722;2023-03-16T16:17:42;22.00;24.80
32173;DHT22;18679;45.190;5.722;2023-03-16T16:20:44;22.00;24.70
32173;DHT22;18679;45.190;5.722;2023-03-16T16:23:47;21.90;24.80
32173;DHT22;18679;45.190;5.722;2023-03-16T16:26:48;21.90;24.80
32173;DHT22;18679;45.190;5.722;2023-03-16T16:29:50;21.80;24.90
32173;DHT22;18679;45.190;5.722;2023-03-16T16:32:54;21.80;25.10
32173;DHT22;18679;45.190;5.722;2023-03-16T16:35:58;21.70;25.20
32173;DHT22;18679;45.190;5.722;2023-03-16T16:39:00;21.70;25.20
32173;DHT22;18679;45.190;5.722;2023-03-16T16:42:02;21.60;25.30
32173;DHT22;18679;45.190;5.722;2023-03-16T16:45:03;21.50;25.40
32173;DHT22;18679;45.190;5.722;2023-03-16T16:51:32;21.30;25.50
32173;DHT22;18679;45.190;5.722;2023-03-16T16:54:34;21.30;25.70
32173;DHT22;18679;45.190;5.722;2023-03-16T16:57:36;21.20;25.80
32173;DHT22;18679;45.190;5.722;2023-03-16T17:00:38;21.10;25.80
32173;DHT22;18679;45.190;5.722;2023-03-16T17:03:39;21.00;25.90
32173;DHT22;18679;45.190;5.722;2023-03-16T17:06:41;21.00;26.00
32173;DHT22;18679;45.190;5.722;2023-03-16T17:09:43;20.90;26.10
32173;DHT22;18679;45.190;5.722;2023-03-16T17:12:44;20.80;26.10
32173;DHT22;18679;45.190;5.722;2023-03-16T17:15:46;20.70;26.20
32173;DHT22;18679;45.190;5.722;2023-03-16T17:18:48;20.70;26.30
32173;DHT22;18679;45.190;5.722;2023-03-16T17:21:50;20.60;26.40
32173;DHT22;18679;45.190;5.722;2023-03-16T17:24:52;20.50;26.50
32173;DHT22;18679;45.190;5.722;2023-03-16T17:27:55;20.40;26.60
32173;DHT22;18679;45.190;5.722;2023-03-16T17:30:57;20.20;28.20
32173;DHT22;18679;45.190;5.722;2023-03-16T17:33:59;20.00;28.60
32173;DHT22;18679;45.190;5.722;2023-03-16T17:37:02;19.70;29.30
32173;DHT22;18679;45.190;5.722;2023-03-16T17:40:03;19.50;29.40
32173;DHT22;18679;45.190;5.722;2023-03-16T17:43:07;19.20;30.20
32173;DHT22;18679;45.190;5.722;2023-03-16T17:46:11;19.20;30.50
32173;DHT22;18679;45.190;5.722;2023-03-16T17:49:14;19.10;31.10
32173;DHT22;18679;45.190;5.722;2023-03-16T17:52:22;19.20;31.80
32173;DHT22;18679;45.190;5.722;2023-03-16T17:55:24;19.00;32.40
32173;DHT22;18679;45.190;5.722;2023-03-16T17:58:28;19.00;33.00
32173;DHT22;18679;45.190;5.722;2023-03-16T18:01:31;18.90;33.50
32173;DHT22;18679;45.190;5.722;2023-03-16T18:04:33;18.80;33.90
32173;DHT22;18679;45.190;5.722;2023-03-16T18:07:34;18.80;34.40
32173;DHT22;18679;45.190;5.722;2023-03-16T18:10:36;18.70;34.60
32173;DHT22;18679;45.190;5.722;2023-03-16T18:13:39;18.70;34.90
32173;DHT22;18679;45.190;5.722;2023-03-16T18:16:41;18.60;35.10
32173;DHT22;18679;45.190;5.722;2023-03-16T18:19:43;18.50;35.40
32173;DHT22;18679;45.190;5.722;2023-03-16T18:22:45;18.50;35.90
32173;DHT22;18679;45.190;5.722;2023-03-16T18:25:47;18.40;36.20
32173;DHT22;18679;45.190;5.722;2023-03-16T18:28:49;18.30;36.50
32173;DHT22;18679;45.190;5.722;2023-03-16T18:31:54;18.20;36.70
32173;DHT22;18679;45.190;5.722;2023-03-16T18:34:56;18.10;37.00
32173;DHT22;18679;45.190;5.722;2023-03-16T18:37:57;18.00;37.10
32173;DHT22;18679;45.190;5.722;2023-03-16T18:41:01;18.00;37.30
32173;DHT22;18679;45.190;5.722;2023-03-16T18:44:20;17.90;37.50
32173;DHT22;18679;45.190;5.722;2023-03-16T18:47:22;17.90;37.70
32173;DHT22;18679;45.190;5.722;2023-03-16T18:50:26;17.80;37.80
32173;DHT22;18679;45.190;5.722;2023-03-16T18:53:27;17.80;37.90
32173;DHT22;18679;45.190;5.722;2023-03-16T18:56:29;17.70;38.00
32173;DHT22;18679;45.190;5.722;2023-03-16T18:59:30;17.70;38.10
32173;DHT22;18679;45.190;5.722;2023-03-16T19:02:37;17.70;38.30
32173;DHT22;18679;45.190;5.722;2023-03-16T19:05:38;17.60;38.40
32173;DHT22;18679;45.190;5.722;2023-03-16T19:08:43;17.50;38.70
32173;DHT22;18679;45.190;5.722;2023-03-16T19:11:46;17.50;38.80
32173;DHT22;18679;45.190;5.722;2023-03-16T19:14:48;17.40;39.00
32173;DHT22;18679;45.190;5.722;2023-03-16T19:17:51;17.30;39.20
32173;DHT22;18679;45.190;5.722;2023-03-16T19:20:56;17.20;39.40
32173;DHT22;18679;45.190;5.722;2023-03-16T19:23:59;17.20;39.60
32173;DHT22;18679;45.190;5.722;2023-03-16T19:27:25;17.10;39.80
32173;DHT22;18679;45.190;5.722;2023-03-16T19:30:36;17.00;39.80
32173;DHT22;18679;45.190;5.722;2023-03-16T19:33:48;16.90;40.00
32173;DHT22;18679;45.190;5.722;2023-03-16T19:36:51;16.90;40.10
32173;DHT22;18679;45.190;5.722;2023-03-16T19:39:53;16.80;40.30
32173;DHT22;18679;45.190;5.722;2023-03-16T19:42:57;16.80;40.50
32173;DHT22;18679;45.190;5.722;2023-03-16T19:46:01;16.80;40.60
32173;DHT22;18679;45.190;5.722;2023-03-16T19:49:02;16.70;40.70
32173;DHT22;18679;45.190;5.722;2023-03-16T19:52:12;16.70;40.80
32173;DHT22;18679;45.190;5.722;2023-03-16T19:55:20;16.60;40.90
32173;DHT22;18679;45.190;5.722;2023-03-16T19:58:35;16.60;41.00
32173;DHT22;18679;45.190;5.722;2023-03-16T20:01:42;16.50;41.10
32173;DHT22;18679;45.190;5.722;2023-03-16T20:04:43;16.50;41.20
32173;DHT22;18679;45.190;5.722;2023-03-16T20:07:48;16.50;41.30
32173;DHT22;18679;45.190;5.722;2023-03-16T20:11:04;16.50;41.30
32173;DHT22;18679;45.190;5.722;2023-03-16T20:14:29;16.50;41.40
32173;DHT22;18679;45.190;5.722;2023-03-16T20:17:31;16.40;41.50
32173;DHT22;18679;45.190;5.722;2023-03-16T20:20:35;16.40;41.70
32173;DHT22;18679;45.190;5.722;2023-03-16T20:23:37;16.40;41.80
32173;DHT22;18679;45.190;5.722;2023-03-16T20:26:42;16.30;41.80
32173;DHT22;18679;45.190;5.722;2023-03-16T20:29:45;16.30;41.80
32173;DHT22;18679;45.190;5.722;2023-03-16T20:32:47;16.30;41.90
32173;DHT22;18679;45.190;5.722;2023-03-16T20:35:51;16.20;42.00
32173;DHT22;18679;45.190;5.722;2023-03-16T20:38:55;16.20;42.00
32173;DHT22;18679;45.190;5.722;2023-03-16T20:41:56;16.20;42.10
32173;DHT22;18679;45.190;5.722;2023-03-16T20:44:58;16.20;42.20